Time;durP1;ratioP1;P1;durP2;ratioP2;P2;SDS_P1;SDS_P2;PMS_P1;PMS_P2;Temp;Humidity;BMP_temperature;BMP_pressure;BME280_temperature;BME280_humidity;BME280_pressure;Samples;Min_cycle;Max_cycle;Signal;HPM_P1;HPM_P2
2021/10/29 00:00:07;;;;;;;8.80;5.55;;;5.20;73.60;;;;;;5119583;27;20223;-64
2021/10/29 00:02:34;;;;;;;7.57;5.38;;;5.20;73.60;;;;;;5112707;28;20208;-63
2021/10/29 00:05:01;;;;;;;14.25;4.85;;;5.20;73.50;;;;;;5124279;28;20596;-63
2021/10/29 00:07:29;;;;;;;9.02;4.90;;;5.30;73.50;;;;;;5133128;27;20643;-63
2021/10/29 00:09:58;;;;;;;9.02;5.57;;;5.30;73.10;;;;;;5122366;27;20234;-63
2021/10/29 00:12:25;;;;;;;6.78;4.82;;;5.20;72.00;;;;;;5115221;28;20220;-63
2021/10/29 00:14:54;;;;;;;7.32;4.88;;;5.10;71.30;;;;;;5125368;27;20184;-63
2021/10/29 00:17:21;;;;;;;6.75;5.10;;;5.10;71.20;;;;;;5137356;27;20249;-64
2021/10/29 00:19:49;;;;;;;5.80;4.50;;;5.10;69.70;;;;;;5128905;27;20181;-63
2021/10/29 00:22:16;;;;;;;6.57;5.15;;;5.00;69.90;;;;;;5116519;28;20197;-62
2021/10/29 00:24:44;;;;;;;7.03;4.97;;;4.90;70.10;;;;;;5122670;27;20204;-63
2021/10/29 00:27:11;;;;;;;6.25;4.40;;;4.90;70.90;;;;;;5136982;27;20188;-63
2021/10/29 00:29:38;;;;;;;5.22;4.35;;;4.90;71.50;;;;;;5131446;27;20193;-63
2021/10/29 00:32:07;;;;;;;8.52;4.97;;;4.90;71.50;;;;;;5116292;28;20216;-63
2021/10/29 00:34:35;;;;;;;6.78;4.45;;;4.90;71.00;;;;;;5130107;27;20189;-63
2021/10/29 00:37:02;;;;;;;5.88;4.45;;;4.80;70.80;;;;;;5136897;27;20219;-63
2021/10/29 00:39:29;;;;;;;5.05;3.85;;;4.80;70.70;;;;;;5123668;27;20230;-63
2021/10/29 00:41:57;;;;;;;8.73;4.20;;;4.80;71.10;;;;;;5116034;28;20279;-63
2021/10/29 00:44:25;;;;;;;9.85;4.40;;;4.80;71.70;;;;;;5127356;27;20642;-64
2021/10/29 00:46:53;;;;;;;5.20;3.60;;;4.90;71.80;;;;;;5136549;27;20195;-65
2021/10/29 00:49:22;;;;;;;5.63;4.13;;;4.80;71.60;;;;;;5125625;27;20212;-63
2021/10/29 00:51:52;;;;;;;8.15;4.10;;;4.90;72.00;;;;;;5116017;28;20265;-63
2021/10/29 00:54:21;;;;;;;5.53;3.75;;;4.80;70.90;;;;;;5125536;27;20181;-63
2021/10/29 00:56:50;;;;;;;5.53;3.80;;;4.70;71.30;;;;;;5136787;27;20220;-62
2021/10/29 00:59:18;;;;;;;5.18;4.03;;;4.70;71.20;;;;;;5119567;27;20535;-63
2021/10/29 01:01:48;;;;;;;4.82;3.67;;;4.70;71.60;;;;;;5115493;28;20193;-63
2021/10/29 01:04:15;;;;;;;7.15;4.10;;;4.70;71.50;;;;;;5131103;27;20199;-64
2021/10/29 01:06:45;;;;;;;4.40;3.95;;;4.70;71.20;;;;;;5136215;27;20196;-63
2021/10/29 01:09:12;;;;;;;6.93;3.78;;;4.70;71.30;;;;;;5121144;27;20258;-63
2021/10/29 01:11:40;;;;;;;8.05;4.43;;;4.70;70.90;;;;;;5115429;28;20193;-62
2021/10/29 01:14:07;;;;;;;7.18;4.72;;;4.60;70.00;;;;;;5128710;27;20590;-62
2021/10/29 01:16:34;;;;;;;5.22;4.10;;;4.60;70.20;;;;;;5136156;27;20210;-62
2021/10/29 01:19:01;;;;;;;6.78;4.25;;;4.60;69.90;;;;;;5115967;27;20189;-63
2021/10/29 01:21:30;;;;;;;7.65;5.93;;;4.50;69.30;;;;;;5115435;28;20196;-63
2021/10/29 01:23:57;;;;;;;5.38;4.55;;;4.50;69.30;;;;;;5133032;27;20192;-63
2021/10/29 01:26:24;;;;;;;6.28;4.22;;;4.50;70.10;;;;;;5135832;27;20692;-63
2021/10/29 01:28:51;;;;;;;6.43;3.90;;;4.50;70.60;;;;;;5118407;27;20189;-62
2021/10/29 01:31:18;;;;;;;6.80;4.20;;;4.50;70.80;;;;;;5115182;28;20193;-63
2021/10/29 01:33:46;;;;;;;7.35;4.45;;;4.40;70.90;;;;;;5130700;27;20215;-63
2021/10/29 01:36:13;;;;;;;5.53;3.95;;;4.40;71.00;;;;;;5135647;27;20184;-63
2021/10/29 01:38:43;;;;;;;4.60;4.10;;;4.40;71.40;;;;;;5120921;27;20181;-62
2021/10/29 01:41:12;;;;;;;5.40;4.32;;;4.40;71.30;;;;;;5114696;27;20566;-63
2021/10/29 01:43:40;;;;;;;10.30;4.35;;;4.30;69.60;;;;;;5128172;27;20192;-62
2021/10/29 01:46:07;;;;;;;5.55;4.20;;;4.30;70.20;;;;;;5135209;27;20249;-64
2021/10/29 01:48:40;;;;;;;4.93;3.53;;;4.20;70.40;;;;;;5134258;27;20233;-62
2021/10/29 01:51:07;;;;;;;4.18;3.10;;;4.20;70.50;;;;;;5135286;27;20224;-63
2021/10/29 01:53:34;;;;;;;4.50;3.90;;;4.10;72.00;;;;;;5115105;27;20213;-63
2021/10/29 01:56:03;;;;;;;6.20;3.97;;;4.10;72.70;;;;;;5114657;28;20192;-64
2021/10/29 01:58:30;;;;;;;6.35;3.50;;;4.10;72.80;;;;;;5126743;27;20244;-63
2021/10/29 02:00:58;;;;;;;4.60;3.85;;;4.00;71.80;;;;;;5114628;28;20212;-63
2021/10/29 02:03:25;;;;;;;5.75;3.97;;;4.10;71.80;;;;;;5114619;28;20189;-63
2021/10/29 02:05:52;;;;;;;5.45;3.88;;;4.10;72.00;;;;;;5130307;27;20256;-63
2021/10/29 02:08:23;;;;;;;4.07;3.13;;;4.10;72.20;;;;;;5135407;27;20228;-63
2021/10/29 02:10:51;;;;;;;6.72;3.95;;;4.10;72.10;;;;;;5118878;27;20185;-64
2021/10/29 02:13:21;;;;;;;4.95;3.72;;;4.00;72.00;;;;;;5115173;27;20244;-64
2021/10/29 02:15:48;;;;;;;4.57;3.85;;;4.00;71.80;;;;;;5134919;27;20188;-63
2021/10/29 02:18:16;;;;;;;5.20;3.88;;;4.00;71.90;;;;;;5134064;27;20222;-63
2021/10/29 02:20:44;;;;;;;4.07;2.90;;;4.00;72.00;;;;;;5134686;27;20188;-64
2021/10/29 02:23:12;;;;;;;3.83;2.95;;;4.00;72.20;;;;;;5130932;27;20192;-63
2021/10/29 02:25:43;;;;;;;4.82;3.80;;;4.00;72.80;;;;;;5113940;28;20697;-63
2021/10/29 02:28:11;;;;;;;5.25;3.45;;;4.00;72.90;;;;;;5116252;27;20185;-63
2021/10/29 02:30:39;;;;;;;6.22;4.32;;;4.10;72.90;;;;;;5134262;27;20239;-63
2021/10/29 02:33:06;;;;;;;5.78;3.70;;;4.00;72.90;;;;;;5132207;27;20241;-63
2021/10/29 02:35:34;;;;;;;6.85;4.43;;;4.00;71.10;;;;;;5113336;28;20193;-63
2021/10/29 02:38:01;;;;;;;6.82;3.03;;;3.90;70.50;;;;;;5113649;27;20188;-64
2021/10/29 02:40:29;;;;;;;5.47;3.80;;;3.80;69.90;;;;;;5134056;27;20211;-63
2021/10/29 02:42:56;;;;;;;5.03;3.67;;;3.80;69.80;;;;;;5134341;27;20195;-63
2021/10/29 02:45:23;;;;;;;5.13;2.95;;;3.70;70.20;;;;;;5114157;27;20184;-63
2021/10/29 02:47:52;;;;;;;6.35;3.90;;;3.70;70.10;;;;;;5113592;28;20717;-63
2021/10/29 02:50:23;;;;;;;3.85;3.40;;;3.60;69.90;;;;;;5131599;27;20220;-63
2021/10/29 02:52:51;;;;;;;5.75;3.47;;;3.60;70.70;;;;;;5134170;27;20218;-63
2021/10/29 02:55:18;;;;;;;4.07;2.90;;;3.50;70.10;;;;;;5115474;27;20196;-63
2021/10/29 02:57:46;;;;;;;4.53;3.33;;;3.50;70.80;;;;;;5113492;28;20220;-63
2021/10/29 03:00:15;;;;;;;5.75;3.63;;;3.40;70.90;;;;;;5129736;27;20614;-63
2021/10/29 03:02:44;;;;;;;4.82;3.58;;;3.50;71.60;;;;;;5133693;27;20188;-63
2021/10/29 03:05:13;;;;;;;4.53;2.75;;;3.50;71.80;;;;;;5117431;27;20196;-63
2021/10/29 03:07:40;;;;;;;4.90;3.30;;;3.50;71.50;;;;;;5113062;28;20589;-63
2021/10/29 03:10:10;;;;;;;3.30;2.75;;;3.40;71.00;;;;;;5127270;27;20192;-64
2021/10/29 03:12:37;;;;;;;5.10;3.10;;;3.50;71.60;;;;;;5133518;27;20211;-63
2021/10/29 03:15:07;;;;;;;5.30;4.20;;;3.50;72.10;;;;;;5119215;27;20227;-63
2021/10/29 03:17:34;;;;;;;5.40;3.50;;;3.50;72.60;;;;;;5113085;28;20649;-64
2021/10/29 03:20:01;;;;;;;6.88;3.92;;;3.50;72.80;;;;;;5125298;27;20725;-63
2021/10/29 03:22:30;;;;;;;6.60;3.58;;;3.50;72.70;;;;;;5133491;27;20191;-63
2021/10/29 03:24:57;;;;;;;6.82;3.80;;;3.50;72.20;;;;;;5121109;27;20195;-63
2021/10/29 03:27:25;;;;;;;5.57;4.00;;;3.50;72.40;;;;;;5112902;28;20192;-63
2021/10/29 03:29:52;;;;;;;3.70;3.00;;;3.50;72.00;;;;;;5122643;27;20184;-63
2021/10/29 03:32:21;;;;;;;6.90;3.88;;;3.40;72.00;;;;;;5133300;27;20192;-63
2021/10/29 03:34:50;;;;;;;6.25;3.65;;;3.40;71.20;;;;;;5123934;27;20272;-62
2021/10/29 03:37:31;;;;;;;10.60;5.60;;;3.40;69.90;;;;;;5114220;27;20612;-63
2021/10/29 03:40:08;;;;;;;6.68;4.35;;;3.30;71.10;;;;;;5132983;27;20284;-63
2021/10/29 03:42:41;;;;;;;6.65;4.15;;;3.30;71.40;;;;;;5128782;27;20192;-63
2021/10/29 03:45:11;;;;;;;6.80;5.38;;;3.20;71.60;;;;;;5112151;28;20193;-62
2021/10/29 03:47:43;;;;;;;6.03;4.00;;;3.20;72.10;;;;;;5131355;27;20194;-62
2021/10/29 03:50:15;;;;;;;5.57;3.50;;;3.20;71.80;;;;;;5132788;27;20273;-62
2021/10/29 03:52:50;;;;;;;5.95;3.65;;;3.20;71.90;;;;;;5113668;27;20209;-62
2021/10/29 03:55:19;;;;;;;6.28;3.70;;;3.20;72.00;;;;;;5113371;28;20260;-62
2021/10/29 03:57:46;;;;;;;5.30;3.15;;;3.20;73.00;;;;;;5132098;27;20633;-62
2021/10/29 04:00:13;;;;;;;5.50;3.80;;;3.30;72.00;;;;;;5132233;27;20192;-63
2021/10/29 04:02:40;;;;;;;5.43;3.63;;;3.30;71.60;;;;;;5092044;28;20652;-63
2021/10/29 04:05:08;;;;;;;5.63;3.85;;;3.30;71.80;;;;;;5092321;28;20198;-63
2021/10/29 04:07:35;;;;;;;5.70;3.00;;;3.30;72.20;;;;;;5131048;28;20184;-63
2021/10/29 04:10:03;;;;;;;7.70;3.22;;;3.30;71.80;;;;;;5132897;27;20192;-66
2021/10/29 04:12:32;;;;;;;6.22;2.72;;;3.20;70.80;;;;;;5114046;27;20192;-62
2021/10/29 04:14:59;;;;;;;3.67;2.33;;;3.20;70.30;;;;;;5119612;28;20184;-63
2021/10/29 04:17:26;;;;;;;4.30;2.70;;;3.20;70.90;;;;;;5133181;27;20557;-63
2021/10/29 04:19:53;;;;;;;3.63;2.45;;;3.20;71.10;;;;;;5126193;27;20185;-66
2021/10/29 04:22:20;;;;;;;6.95;3.55;;;3.20;70.80;;;;;;5112334;28;20235;-62
2021/10/29 04:24:47;;;;;;;4.47;3.00;;;3.20;71.30;;;;;;5128120;28;20293;-63
2021/10/29 04:27:21;;;;;;;5.03;3.80;;;3.20;71.60;;;;;;5132844;27;20200;-62
2021/10/29 04:29:52;;;;;;;6.00;3.95;;;3.20;72.00;;;;;;5117058;27;20277;-62
2021/10/29 04:32:20;;;;;;;7.18;4.03;;;3.30;72.10;;;;;;5112323;28;20189;-62
2021/10/29 04:34:47;;;;;;;6.72;4.30;;;3.40;72.90;;;;;;5126505;28;20214;-62
2021/10/29 04:37:15;;;;;;;7.00;4.60;;;3.40;73.70;;;;;;5132950;27;20666;-63
2021/10/29 04:39:42;;;;;;;6.95;4.85;;;3.50;74.70;;;;;;5118850;27;20284;-63
2021/10/29 04:42:16;;;;;;;6.53;3.78;;;3.50;75.10;;;;;;5112387;28;20184;-63
2021/10/29 04:44:43;;;;;;;11.95;4.88;;;3.50;75.00;;;;;;5124863;28;20526;-63
2021/10/29 04:47:12;;;;;;;7.55;4.85;;;3.60;74.70;;;;;;5132749;27;20188;-63
2021/10/29 04:49:39;;;;;;;9.38;5.15;;;3.60;75.30;;;;;;5120098;27;20227;-63
2021/10/29 04:52:07;;;;;;;8.93;4.72;;;3.60;76.00;;;;;;5112077;28;20193;-63
2021/10/29 04:54:34;;;;;;;7.80;5.35;;;3.60;75.90;;;;;;5122344;28;20689;-63
2021/10/29 04:57:01;;;;;;;17.42;8.93;;;3.70;76.60;;;;;;5132964;27;20188;-63
2021/10/29 04:59:29;;;;;;;29.45;10.65;;;3.70;76.70;;;;;;5134777;27;20180;-63
2021/10/29 05:01:56;;;;;;;27.77;13.05;;;3.80;77.00;;;;;;5136462;27;20199;-64
2021/10/29 05:04:24;;;;;;;23.33;9.00;;;3.60;78.10;;;;;;5127898;27;20241;-63
2021/10/29 05:06:51;;;;;;;16.77;7.78;;;3.60;79.00;;;;;;5115559;28;20189;-63
2021/10/29 05:09:18;;;;;;;15.73;6.47;;;3.50;79.40;;;;;;5118796;27;20189;-63
2021/10/29 05:11:46;;;;;;;19.00;6.25;;;3.50;80.30;;;;;;5113400;28;20201;-64
2021/10/29 05:14:13;;;;;;;16.52;6.57;;;3.50;80.40;;;;;;5102380;27;20549;-63
2021/10/29 05:16:40;;;;;;;19.40;6.88;;;3.50;80.20;;;;;;5094447;28;20669;-63
2021/10/29 05:19:07;;;;;;;9.70;5.80;;;3.40;80.50;;;;;;5106702;27;20189;-63
2021/10/29 05:21:36;;;;;;;8.50;5.88;;;3.40;81.00;;;;;;5113888;27;20189;-63
2021/10/29 05:24:03;;;;;;;10.32;6.60;;;3.40;81.40;;;;;;5105980;27;20193;-65
2021/10/29 05:26:30;;;;;;;15.18;6.20;;;3.50;82.10;;;;;;5112406;28;20291;-64
2021/10/29 05:28:57;;;;;;;9.05;5.72;;;3.60;82.40;;;;;;5101918;28;20185;-63
2021/10/29 05:31:25;;;;;;;8.13;5.60;;;3.70;82.60;;;;;;5113791;27;20189;-63
2021/10/29 05:33:52;;;;;;;13.80;6.68;;;3.80;82.50;;;;;;5095022;28;20225;-63
2021/10/29 05:36:19;;;;;;;11.88;6.50;;;3.80;82.40;;;;;;5104483;27;20246;-64
2021/10/29 05:38:47;;;;;;;15.18;6.80;;;3.80;82.60;;;;;;5105370;27;20268;-62
2021/10/29 05:41:15;;;;;;;27.50;5.53;;;3.70;83.20;;;;;;5104138;27;20235;-62
2021/10/29 05:43:42;;;;;;;13.50;4.78;;;3.70;82.70;;;;;;5097887;27;20235;-63
2021/10/29 05:46:09;;;;;;;11.38;5.15;;;3.70;83.80;;;;;;5107223;27;20188;-63
2021/10/29 05:48:38;;;;;;;15.18;4.93;;;3.60;83.70;;;;;;5096474;28;20254;-65
2021/10/29 05:51:10;;;;;;;6.78;4.45;;;3.50;84.50;;;;;;5110602;27;20231;-64
2021/10/29 05:53:41;;;;;;;12.95;5.85;;;3.50;84.80;;;;;;5113830;27;20215;-66
2021/10/29 05:56:10;;;;;;;6.97;4.55;;;3.60;85.10;;;;;;5109012;27;20529;-65
2021/10/29 05:58:37;;;;;;;8.18;4.38;;;3.70;84.90;;;;;;5112766;27;20188;-66
2021/10/29 06:01:04;;;;;;;7.80;4.30;;;3.70;84.00;;;;;;5106655;28;20186;-65
2021/10/29 06:03:31;;;;;;;7.95;4.63;;;3.70;82.90;;;;;;5093742;28;20202;-65
2021/10/29 06:05:59;;;;;;;9.57;4.55;;;3.70;82.40;;;;;;5094214;28;20284;-65
2021/10/29 06:08:26;;;;;;;9.13;4.82;;;3.80;82.10;;;;;;5093424;28;20196;-65
2021/10/29 06:10:54;;;;;;;7.70;4.80;;;3.80;81.70;;;;;;5108669;27;20189;-65
2021/10/29 06:13:22;;;;;;;6.65;5.18;;;3.90;82.00;;;;;;5111665;27;20194;-65
2021/10/29 06:15:50;;;;;;;5.47;4.57;;;3.90;81.80;;;;;;5111589;28;20216;-65
2021/10/29 06:18:24;;;;;;;10.82;6.47;;;4.00;80.20;;;;;;5095846;27;20239;-67
2021/10/29 06:20:53;;;;;;;70.70;31.13;;;4.00;80.70;;;;;;5103041;27;20200;-68
2021/10/29 06:23:24;;;;;;;35.58;20.40;;;4.00;80.60;;;;;;5108258;27;20234;-66
2021/10/29 06:25:54;;;;;;;14.35;10.52;;;4.00;80.00;;;;;;5097579;28;20527;-66
2021/10/29 06:28:28;;;;;;;21.10;13.68;;;4.10;80.40;;;;;;5094948;27;20215;-66
2021/10/29 06:30:56;;;;;;;10.30;5.85;;;4.10;80.30;;;;;;5102827;27;20189;-66
2021/10/29 06:33:24;;;;;;;6.72;5.35;;;4.20;80.30;;;;;;5097932;27;20197;-66
2021/10/29 06:35:53;;;;;;;7.70;4.72;;;4.30;80.30;;;;;;5114095;27;20196;-65
2021/10/29 06:38:20;;;;;;;7.43;4.88;;;4.40;80.40;;;;;;5115884;27;20272;-65
2021/10/29 06:40:49;;;;;;;8.75;4.57;;;4.40;79.70;;;;;;5133959;27;20199;-66
2021/10/29 06:43:22;;;;;;;9.70;5.30;;;4.40;78.50;;;;;;5134350;27;20188;-65
2021/10/29 06:46:16;;;;;;;9.48;6.00;;;4.40;79.20;;;;;;5134963;27;20231;-66
2021/10/29 06:49:05;;;;;;;11.73;4.05;;;4.40;79.10;;;;;;5114173;27;20185;-66
2021/10/29 06:59:59;;;;;;;9.30;5.65;;;4.50;77.70;;;;;;5114189;28;20669;-66
2021/10/29 07:02:55;;;;;;;11.75;6.15;;;4.50;78.30;;;;;;5113579;28;20191;-66
2021/10/29 07:41:23;;;;;;;9.98;4.20;;;5.00;83.30;;;;;;5112942;28;20192;-66
2021/10/29 07:43:51;;;;;;;11.38;5.43;;;5.20;81.30;;;;;;5113011;28;20188;-65
2021/10/29 07:46:19;;;;;;;9.02;4.82;;;5.30;80.30;;;;;;5113114;28;20193;-65
2021/10/29 07:48:47;;;;;;;7.78;4.75;;;5.40;80.30;;;;;;5113336;28;20185;-65
2021/10/29 07:51:17;;;;;;;6.97;5.00;;;5.50;78.80;;;;;;5112894;28;20293;-65
2021/10/29 07:53:45;;;;;;;9.05;5.07;;;5.60;78.90;;;;;;5110904;28;20189;-65
2021/10/29 07:56:13;;;;;;;12.23;5.07;;;5.80;77.70;;;;;;5113007;28;20228;-66
2021/10/29 07:58:40;;;;;;;6.75;4.80;;;5.80;77.10;;;;;;5113184;28;20252;-65
2021/10/29 08:01:07;;;;;;;6.57;4.18;;;5.90;78.10;;;;;;5112806;28;20188;-65
2021/10/29 08:03:34;;;;;;;6.95;4.63;;;6.00;77.10;;;;;;5112968;28;20665;-65
2021/10/29 08:06:02;;;;;;;4.78;3.65;;;6.10;77.40;;;;;;5112771;28;20197;-65
2021/10/29 08:08:30;;;;;;;5.65;4.07;;;6.20;77.20;;;;;;5113023;28;20192;-66
2021/10/29 08:10:58;;;;;;;4.22;3.35;;;6.30;76.70;;;;;;5112682;28;20537;-65
2021/10/29 08:13:25;;;;;;;5.38;3.70;;;6.40;75.70;;;;;;5112922;28;20185;-66
2021/10/29 08:15:58;;;;;;;6.78;3.78;;;6.50;74.90;;;;;;5113239;28;20220;-66
2021/10/29 08:18:26;;;;;;;5.90;4.00;;;6.60;74.00;;;;;;5112899;28;20343;-66
2021/10/29 08:20:53;;;;;;;9.88;4.70;;;6.70;74.60;;;;;;5113120;28;20642;-66
2021/10/29 08:23:20;;;;;;;10.10;4.80;;;6.80;74.00;;;;;;5112700;28;20193;-65
2021/10/29 08:25:48;;;;;;;6.45;4.35;;;6.80;73.20;;;;;;5113020;28;20280;-66
2021/10/29 08:28:16;;;;;;;5.22;4.30;;;7.00;72.80;;;;;;5113160;28;20246;-65
2021/10/29 08:30:43;;;;;;;8.13;5.00;;;7.00;73.20;;;;;;5112838;28;20224;-65
2021/10/29 08:33:10;;;;;;;7.75;4.45;;;7.00;73.30;;;;;;5115315;28;20195;-65
2021/10/29 08:35:37;;;;;;;4.75;4.15;;;7.10;72.90;;;;;;5116930;28;20311;-65
2021/10/29 08:38:04;;;;;;;8.52;4.88;;;7.10;71.50;;;;;;5116611;28;20725;-66
2021/10/29 08:40:31;;;;;;;6.78;4.38;;;7.10;70.30;;;;;;5116672;28;20716;-65
2021/10/29 08:42:59;;;;;;;5.35;4.55;;;7.20;70.80;;;;;;5116931;28;20195;-65
2021/10/29 08:45:27;;;;;;;5.70;4.10;;;7.30;71.80;;;;;;5116760;28;20585;-65
2021/10/29 08:47:57;;;;;;;7.65;4.55;;;7.50;71.40;;;;;;5114757;28;20208;-66
2021/10/29 08:50:24;;;;;;;5.72;4.25;;;7.70;70.50;;;;;;5116224;28;20242;-65
2021/10/29 08:52:51;;;;;;;8.45;5.20;;;8.00;71.00;;;;;;5116751;28;20276;-67
2021/10/29 08:55:25;;;;;;;8.95;5.18;;;8.40;69.40;;;;;;5116055;28;20303;-66
2021/10/29 08:57:52;;;;;;;7.78;5.65;;;8.50;68.20;;;;;;5116232;28;20231;-66
2021/10/29 09:00:23;;;;;;;6.45;5.22;;;8.60;67.20;;;;;;5116559;28;20242;-66
2021/10/29 09:02:58;;;;;;;7.10;4.72;;;8.70;67.60;;;;;;5116184;28;20177;-66
2021/10/29 09:05:30;;;;;;;9.50;6.05;;;8.70;68.10;;;;;;5115906;28;20176;-67
2021/10/29 09:08:09;;;;;;;7.35;6.05;;;8.80;68.00;;;;;;5105684;28;20234;-67
2021/10/29 09:11:03;;;;;;;6.68;5.18;;;8.90;66.80;;;;;;5113898;28;20576;-66
2021/10/29 09:16:55;;;;;;;12.25;5.57;;;9.30;64.40;;;;;;5115613;28;20224;-66
2021/10/29 09:33:52;;;;;;;8.25;7.45;;;;;;;;;;5115651;28;20196;-69
2021/10/29 09:36:26;;;;;;;5.43;4.93;;;;;;;;;;5115508;28;20702;-69
2021/10/29 09:39:05;;;;;;;5.77;4.97;;;;;;;;;;5115446;28;20241;-67
2021/10/29 09:41:33;;;;;;;4.97;4.30;;;;;;;;;;5114992;28;20434;-67
2021/10/29 09:44:01;;;;;;;5.87;5.27;;;;;;;;;;5114957;28;20441;-67
2021/10/29 09:46:41;;;;;;;4.50;4.10;;;;;;;;;;5114082;28;20469;-68
2021/10/29 09:49:13;;;;;;;7.00;4.57;;;;;;;;;;5114706;28;20438;-67
2021/10/29 09:51:51;;;;;;;4.70;4.20;;;;;;;;;;5114741;28;20470;-68
2021/10/29 09:54:26;;;;;;;4.40;3.60;;;;;;;;;;5096521;28;20474;-66
2021/10/29 09:56:55;;;;;;;5.83;4.60;;;;;;;;;;5111100;28;20427;-66
2021/10/29 09:59:22;;;;;;;5.23;4.60;;;;;;;;;;5113734;28;20835;-66
2021/10/29 10:01:51;;;;;;;5.17;4.53;;;;;;;;;;5114309;27;20445;-65
2021/10/29 10:04:21;;;;;;;4.87;4.37;;;;;;;;;;5113722;28;20441;-67
2021/10/29 10:06:48;;;;;;;4.93;4.43;;;;;;;;;;5115129;28;20438;-67
2021/10/29 10:09:16;;;;;;;4.07;3.63;;;;;;;;;;5115465;28;20533;-67
2021/10/29 10:11:45;;;;;;;6.60;4.50;;;;;;;;;;5115140;28;20433;-68
2021/10/29 10:14:13;;;;;;;5.63;5.03;;;;;;;;;;5115084;28;20774;-68
2021/10/29 10:16:40;;;;;;;6.67;5.13;;;;;;;;;;5115219;28;20529;-67
2021/10/29 10:19:08;;;;;;;7.40;6.13;;;;;;;;;;5115254;28;20843;-68
2021/10/29 10:21:41;;;;;;;4.57;4.00;;;;;;;;;;5115060;28;20438;-68
2021/10/29 10:24:12;;;;;;;6.97;5.17;;;;;;;;;;5115107;28;20775;-68
2021/10/29 10:29:43;;;;;;;5.10;4.60;;;;;;;;;;5090268;28;20419;-69
2021/10/29 10:41:01;;;;;;;5.17;4.70;;;;;;;;;;5093716;28;20493;-66
2021/10/29 10:43:39;;;;;;;4.77;4.37;;;;;;;;;;5094110;28;20471;-69
2021/10/29 10:46:19;;;;;;;6.00;5.50;;;;;;;;;;5094269;28;20446;-66
2021/10/29 10:48:51;;;;;;;5.80;5.30;;;;;;;;;;5094020;28;20467;-68
2021/10/29 10:51:41;;;;;;;5.70;5.20;;;;;;;;;;5094225;28;20538;-69
2021/10/29 10:54:16;;;;;;;6.50;5.90;;;;;;;;;;5094162;28;20437;-66
2021/10/29 10:56:59;;;;;;;5.50;5.00;;;;;;;;;;5093382;28;20435;-66
2021/10/29 10:59:34;;;;;;;6.40;5.37;;;;;;;;;;5094237;28;20441;-66
2021/10/29 11:05:31;;;;;;;4.87;4.37;;;;;;;;;;5097922;28;20431;-66
2021/10/29 11:10:58;;;;;;;6.10;5.60;;;;;;;;;;5114167;28;20427;-67
2021/10/29 11:13:27;;;;;;;5.83;5.10;;;;;;;;;;5112106;28;20422;-68
2021/10/29 11:16:04;;;;;;;5.80;5.30;;;;;;;;;;5101428;28;20427;-67
2021/10/29 11:18:35;;;;;;;4.63;4.23;;;;;;;;;;5112312;28;20436;-67
2021/10/29 11:21:09;;;;;;;5.63;4.40;;;;;;;;;;5112392;28;20438;-67
2021/10/29 11:23:36;;;;;;;5.70;5.00;;;;;;;;;;5112017;28;20439;-67
2021/10/29 11:26:07;;;;;;;4.50;4.10;;;;;;;;;;5111240;28;20818;-67
2021/10/29 11:28:35;;;;;;;5.77;5.27;;;;;;;;;;5112716;28;20818;-67
2021/10/29 11:31:03;;;;;;;4.33;3.93;;;;;;;;;;5112637;28;20525;-67
2021/10/29 11:33:30;;;;;;;5.03;4.43;;;;;;;;;;5112806;28;20435;-67
2021/10/29 11:35:59;;;;;;;4.73;4.30;;;;;;;;;;5111668;28;20439;-67
2021/10/29 11:38:27;;;;;;;4.60;4.20;;;;;;;;;;5111667;27;20438;-67
2021/10/29 11:40:54;;;;;;;6.30;4.23;;;;;;;;;;5111301;28;20434;-66
2021/10/29 11:43:28;;;;;;;4.27;3.83;;;;;;;;;;5112594;28;20430;-66
2021/10/29 11:45:58;;;;;;;4.30;3.90;;;;;;;;;;5112544;28;20484;-66
2021/10/29 11:48:26;;;;;;;4.97;4.47;;;;;;;;;;5112632;28;20441;-67
2021/10/29 11:51:07;;;;;;;4.97;4.33;;;;;;;;;;5112408;28;20882;-66
2021/10/29 11:53:36;;;;;;;4.97;3.80;;;;;;;;;;5112452;28;20434;-66
2021/10/29 11:56:10;;;;;;;4.77;4.37;;;;;;;;;;5112936;28;20473;-66
2021/10/29 11:58:49;;;;;;;5.90;4.87;;;;;;;;;;5113236;28;20480;-66
2021/10/29 12:01:30;;;;;;;4.63;4.23;;;;;;;;;;5113390;28;20462;-67
2021/10/29 12:09:28;;;;;;;6.60;4.23;;;;;;;;;;5117490;28;20474;-67
2021/10/29 12:11:56;;;;;;;5.10;4.60;;;;;;;;;;5117198;27;20434;-67
2021/10/29 12:14:30;;;;;;;5.33;4.83;;;;;;;;;;5115594;28;20515;-67
2021/10/29 12:17:01;;;;;;;4.90;4.43;;;;;;;;;;5125682;27;20437;-66
2021/10/29 12:19:29;;;;;;;5.30;4.77;;;;;;;;;;5135321;27;20465;-66
2021/10/29 12:22:08;;;;;;;5.07;4.57;;;;;;;;;;5126279;27;20438;-67
2021/10/29 12:24:39;;;;;;;6.73;5.10;;;;;;;;;;5119817;27;20451;-67
2021/10/29 12:27:14;;;;;;;5.63;5.13;;;;;;;;;;5109941;27;20979;-67
2021/10/29 12:29:44;;;;;;;5.80;4.67;;;;;;;;;;5105068;27;20453;-67
2021/10/29 12:32:38;;;;;;;5.80;5.30;;;;;;;;;;5108481;28;20442;-67
2021/10/29 12:54:38;;;;;;;6.27;5.63;;;40.20;10.90;;;;;;5107593;27;20525;-67
2021/10/29 13:02:32;;;;;;;6.93;5.73;;;37.20;13.00;;;;;;5095954;28;20422;-66
2021/10/29 13:04:59;;;;;;;7.53;5.83;;;35.50;13.60;;;;;;5104663;27;20427;-66
2021/10/29 13:07:27;;;;;;;8.50;5.50;;;33.70;14.80;;;;;;5103376;28;20488;-66
2021/10/29 13:10:06;;;;;;;5.23;4.73;;;32.30;16.20;;;;;;5096979;28;20527;-66
2021/10/29 13:12:42;;;;;;;6.93;6.33;;;31.40;17.10;;;;;;5095390;28;20439;-68
2021/10/29 13:15:13;;;;;;;6.50;5.13;;;30.60;17.60;;;;;;5095470;28;20524;-67
2021/10/29 13:17:50;;;;;;;6.27;5.67;;;29.40;18.60;;;;;;5094955;28;20502;-67
2021/10/29 13:20:37;;;;;;;5.97;5.37;;;28.20;19.50;;;;;;5097835;28;20748;-67
2021/10/29 13:26:26;;;;;;;6.60;5.90;;;25.60;21.90;;;;;;5112022;28;20477;-66
2021/10/29 13:28:58;;;;;;;6.40;5.77;;;24.50;22.90;;;;;;5112219;27;20483;-67
2021/10/29 13:37:00;;;;;;;7.53;5.80;;;21.50;26.70;;;;;;5133036;27;20430;-67
2021/10/29 13:56:05;;;;;;;8.60;6.87;;;18.10;33.40;;;;;;5109469;28;20547;-67
2021/10/29 13:58:54;;;;;;;10.67;8.30;;;17.90;34.60;;;;;;5115632;28;20456;-65
2021/10/29 14:16:19;;;;;;;7.73;6.93;;;17.30;36.10;;;;;;5115169;28;20926;-66
2021/10/29 14:29:17;;;;;;;12.27;8.10;;;16.00;41.70;;;;;;5094054;28;20435;-65
2021/10/29 14:31:48;;;;;;;9.10;7.10;;;15.90;42.10;;;;;;5112510;27;20856;-65
2021/10/29 14:34:18;;;;;;;10.43;7.37;;;15.70;42.50;;;;;;5121828;27;20941;-65
2021/10/29 14:36:54;;;;;;;8.53;7.73;;;15.60;42.30;;;;;;5111999;27;20470;-65
2021/10/29 14:39:33;;;;;;;9.50;7.60;;;15.60;43.10;;;;;;5096752;27;20451;-66
2021/10/29 14:42:13;;;;;;;9.63;8.07;;;15.40;42.80;;;;;;5109911;27;20430;-66
2021/10/29 14:44:46;;;;;;;9.60;7.87;;;15.30;43.20;;;;;;5093565;28;20440;-65
2021/10/29 14:47:29;;;;;;;10.13;8.57;;;15.20;43.90;;;;;;5093059;28;20489;-66
2021/10/29 14:50:11;;;;;;;8.30;7.40;;;15.10;44.20;;;;;;5109306;28;20462;-66
2021/10/29 15:01:27;;;;;;;7.73;6.93;;;14.70;45.60;;;;;;5104233;27;20480;-67
2021/10/29 15:28:47;;;;;;;11.40;8.10;;;13.50;50.00;;;;;;5090498;27;20229;-66
2021/10/29 15:31:28;;;;;;;9.35;8.13;;;13.40;50.50;;;;;;5111758;27;20253;-66
2021/10/29 15:42:23;;;;;;;12.98;10.77;;;13.00;52.00;;;;;;5104453;27;20565;-66
2021/10/29 15:45:02;;;;;;;12.30;10.65;;;12.90;53.60;;;;;;5116919;27;20192;-66
2021/10/29 15:47:41;;;;;;;13.00;10.70;;;12.80;54.00;;;;;;5112441;28;20200;-66
2021/10/29 15:50:10;;;;;;;14.40;9.90;;;12.70;53.80;;;;;;5105207;27;20607;-66
2021/10/29 15:52:38;;;;;;;11.90;9.85;;;12.60;53.80;;;;;;5110069;27;20205;-66
2021/10/29 15:55:09;;;;;;;11.48;9.50;;;12.50;54.00;;;;;;5118573;27;20223;-66
2021/10/29 15:57:53;;;;;;;10.15;9.05;;;12.40;54.50;;;;;;5105107;28;20311;-66
2021/10/29 16:00:36;;;;;;;12.20;9.18;;;12.40;54.90;;;;;;5110718;28;20209;-66
2021/10/29 16:03:15;;;;;;;11.05;9.32;;;12.30;55.20;;;;;;5118531;28;20835;-66
2021/10/29 16:17:07;;;;;;;26.85;17.27;;;11.80;56.80;;;;;;5109725;28;20268;-66
2021/10/29 16:19:35;;;;;;;20.13;16.33;;;11.80;57.40;;;;;;5110124;28;21545;-66
2021/10/29 16:22:05;;;;;;;22.75;15.93;;;11.70;57.40;;;;;;5113588;28;20192;-66
2021/10/29 16:24:32;;;;;;;21.30;16.27;;;11.70;57.50;;;;;;5112121;28;20695;-68
2021/10/29 16:27:00;;;;;;;17.38;14.55;;;11.60;57.10;;;;;;5110893;27;20189;-66
2021/10/29 16:29:27;;;;;;;15.85;12.60;;;11.50;57.40;;;;;;5117844;28;20232;-66
2021/10/29 16:31:56;;;;;;;16.40;13.63;;;11.40;58.50;;;;;;5109083;28;20660;-67
2021/10/29 16:34:24;;;;;;;17.77;14.48;;;11.30;58.80;;;;;;5111554;27;20633;-66
2021/10/29 16:36:52;;;;;;;20.45;14.60;;;11.20;58.80;;;;;;5115998;28;20304;-66
2021/10/29 16:39:28;;;;;;;18.25;16.40;;;11.10;58.80;;;;;;5110539;27;20650;-66
2021/10/29 16:42:11;;;;;;;21.20;14.93;;;11.00;59.30;;;;;;5112477;27;20279;-66
2021/10/29 16:44:38;;;;;;;22.50;16.58;;;11.00;60.80;;;;;;5116570;28;20227;-66
2021/10/29 16:47:07;;;;;;;23.55;16.30;;;10.90;61.60;;;;;;5110612;28;20228;-66
2021/10/29 16:49:34;;;;;;;20.13;17.23;;;10.80;62.30;;;;;;5112265;28;20307;-67
2021/10/29 16:52:01;;;;;;;19.27;16.60;;;10.80;62.30;;;;;;5114389;27;20184;-66
2021/10/29 16:54:28;;;;;;;26.33;20.58;;;10.70;62.80;;;;;;5104802;27;20358;-67
2021/10/29 16:56:55;;;;;;;16.20;14.48;;;10.70;63.00;;;;;;5113452;27;20386;-66
2021/10/29 16:59:22;;;;;;;19.13;15.38;;;10.70;63.80;;;;;;5111717;27;20220;-66